Time;durP1;ratioP1;P1;durP2;ratioP2;P2;SDS_P1;SDS_P2;PMS_P1;PMS_P2;Temp;Humidity;BMP_temperature;BMP_pressure;BME280_temperature;BME280_humidity;BME280_pressure;Samples;Min_cycle;Max_cycle;Signal;HPM_P1;HPM_P2
2022/07/05 00:01:42;;;;;;;;;;;;;;;23.60;59.36;97980.81;4379684;32;20038;-84
2022/07/05 00:04:09;;;;;;;;;;;;;;;23.65;59.24;97975.94;4379431;32;19994;-84
2022/07/05 00:12:23;;;;;;;;;;;;;;;24.26;56.52;97983.06;4379385;32;20022;-84
2022/07/05 00:21:08;;;;;;;;;;;;;;;24.02;55.73;97965.22;4379507;32;20008;-84
2022/07/05 00:23:35;;;;;;;;;;;;;;;23.98;55.59;97968.34;4379231;32;20332;-84
2022/07/05 00:29:24;;;;;;;;;;;;;;;23.87;55.17;97967.59;4379422;32;19984;-84
2022/07/05 00:31:51;;;;;;;;;;;;;;;24.65;52.65;97965.03;4379002;32;20041;-84
2022/07/05 00:34:18;;;;;;;;;;;;;;;24.81;51.79;97957.25;4365782;32;20256;-84
2022/07/05 00:36:45;;;;;;;;;;;;;;;24.90;51.73;97954.66;4379312;32;20041;-84
2022/07/05 00:39:12;;;;;;;;;;;;;;;24.75;51.48;97954.38;4365484;32;20045;-84
2022/07/05 00:41:39;;;;;;;;;;;;;;;25.42;50.09;97957.19;4379119;32;20049;-84
2022/07/05 00:44:07;;;;;;;;;;;;;;;25.86;48.55;97958.59;4378967;32;19992;-84
2022/07/05 00:49:49;;;;;;;;;;;;;;;25.76;49.58;97983.53;4379085;32;20335;-84
2022/07/05 00:52:16;;;;;;;;;;;;;;;25.26;50.84;97979.91;4378676;32;20398;-84
2022/07/05 01:00:52;;;;;;;;;;;;;;;24.31;53.11;97975.53;4378745;32;20401;-84
2022/07/05 01:03:19;;;;;;;;;;;;;;;24.77;51.85;97961.16;4378799;32;19982;-84
2022/07/05 01:09:09;;;;;;;;;;;;;;;24.93;51.53;97960.44;4381142;32;20028;-84
2022/07/05 01:11:36;;;;;;;;;;;;;;;25.42;48.78;97957.19;4367209;32;20326;-84
2022/07/05 01:14:03;;;;;;;;;;;;;;;25.27;49.40;97959.59;4380828;32;20013;-84
2022/07/05 01:19:42;;;;;;;;;;;;;;;25.13;50.09;97966.31;4380823;32;20000;-84
2022/07/05 01:22:12;;;;;;;;;;;;;;;24.73;50.11;97956.38;4380998;32;20392;-84
2022/07/05 01:30:57;;;;;;;;;;;;;;;24.96;50.10;97957.47;4380990;32;20113;-84
2022/07/05 01:33:28;;;;;;;;;;;;;;;25.59;48.42;97957.03;4367390;32;20276;-84
2022/07/05 01:39:17;;;;;;;;;;;;;;;26.12;47.82;97962.91;4380762;32;20265;-84
2022/07/05 01:41:44;;;;;;;;;;;;;;;25.77;48.53;97958.75;4380603;32;19982;-84
2022/07/05 01:44:10;;;;;;;;;;;;;;;26.18;47.34;97955.16;4367354;32;20041;-84
2022/07/05 01:49:53;;;;;;;;;;;;;;;25.76;49.34;97955.28;4380676;32;20000;-84
2022/07/05 01:52:21;;;;;;;;;;;;;;;25.69;48.63;97956.91;4367286;32;20261;-84
2022/07/05 02:01:06;;;;;;;;;;;;;;;25.93;48.24;97953.47;4380757;32;20046;-83
2022/07/05 02:03:32;;;;;;;;;;;;;;;26.07;46.76;97965.22;4380542;32;20340;-84
2022/07/05 02:09:41;;;;;;;;;;;;;;;26.04;47.17;97971.66;4380525;32;20571;-84
2022/07/05 02:12:08;;;;;;;;;;;;;;;26.04;46.50;97979.56;4380444;32;19982;-84
2022/07/05 02:20:55;;;;;;;;;;;;;;;24.69;50.49;98011.25;4380677;32;19981;-83
2022/07/05 02:23:22;;;;;;;;;;;;;;;24.42;51.93;98014.03;4380333;32;19998;-84
2022/07/05 02:29:11;;;;;;;;;;;;;;;24.01;56.84;98008.38;4380630;32;19985;-84
2022/07/05 02:31:37;;;;;;;;;;;;;;;23.63;61.06;98009.50;4380281;32;20316;-83
2022/07/05 02:34:04;;;;;;;;;;;;;;;23.42;64.12;98008.91;4380427;32;20047;-84
2022/07/05 02:39:53;;;;;;;;;;;;;;;24.12;60.16;98018.69;4380581;32;19984;-83
2022/07/05 02:42:20;;;;;;;;;;;;;;;23.78;62.00;98020.34;4367064;32;20045;-84
2022/07/05 02:51:06;;;;;;;;;;;;;;;22.98;65.56;97999.00;4380255;32;20447;-83
2022/07/05 02:53:34;;;;;;;;;;;;;;;22.15;70.10;97990.00;4380383;32;20025;-83
2022/07/05 02:59:23;;;;;;;;;;;;;;;21.91;71.83;97974.66;4380309;32;19992;-83
2022/07/05 03:01:49;;;;;;;;;;;;;;;22.04;72.84;97984.88;4380304;32;20384;-83
2022/07/05 03:04:16;;;;;;;;;;;;;;;21.82;74.75;97980.72;4380253;32;19990;-84
2022/07/05 03:10:05;;;;;;;;;;;;;;;22.45;73.15;97989.00;4380501;32;19993;-83
2022/07/05 03:12:32;;;;;;;;;;;;;;;22.83;71.62;98002.19;4379885;32;20005;-83
2022/07/05 03:20:54;;;;;;;;;;;;;;;22.40;74.64;98048.22;4380068;32;20048;-83
2022/07/05 03:23:20;;;;;;;;;;;;;;;22.32;74.66;98080.44;4380147;32;19966;-83
2022/07/05 03:29:09;;;;;;;;;;;;;;;21.93;74.87;98097.97;4380027;32;20300;-83
2022/07/05 03:31:36;;;;;;;;;;;;;;;22.38;73.49;98081.72;4366693;32;20012;-84
2022/07/05 03:34:03;;;;;;;;;;;;;;;23.17;70.28;98078.81;4379779;32;20325;-84
2022/07/05 03:39:53;;;;;;;;;;;;;;;23.38;69.22;98071.53;4380045;32;20000;-84
2022/07/05 03:42:20;;;;;;;;;;;;;;;23.71;67.90;98072.78;4366729;32;20338;-84
2022/07/05 03:51:19;;;;;;;;;;;;;;;24.03;64.25;98080.22;4379834;32;19997;-84
2022/07/05 03:53:45;;;;;;;;;;;;;;;23.52;65.39;98060.53;4379863;32;19970;-83
2022/07/05 03:59:34;;;;;;;;;;;;;;;23.32;65.62;98058.97;4379873;32;19981;-84
2022/07/05 04:02:01;;;;;;;;;;;;;;;23.46;65.41;98065.53;4379468;32;19985;-84
2022/07/05 04:04:27;;;;;;;;;;;;;;;23.12;66.83;98071.38;4379728;32;20284;-84
2022/07/05 04:06:54;;;;;;;;;;;;;;;23.23;66.51;98083.53;4379595;32;20013;-84
2022/07/05 04:09:21;;;;;;;;;;;;;;;23.40;66.67;98076.69;4379250;32;20022;-84
2022/07/05 04:11:48;;;;;;;;;;;;;;;23.16;67.84;98075.34;4379296;32;20036;-84
2022/07/05 04:14:14;;;;;;;;;;;;;;;23.38;67.08;98072.34;4379577;32;19996;-83
2022/07/05 04:20:00;;;;;;;;;;;;;;;23.21;67.76;98081.03;4379493;32;20001;-84
2022/07/05 04:22:27;;;;;;;;;;;;;;;22.90;70.01;98092.75;4379129;32;20632;-84
2022/07/05 04:31:13;;;;;;;;;;;;;;;22.60;71.09;98134.00;4379271;32;20005;-84
2022/07/05 04:33:40;;;;;;;;;;;;;;;22.62;71.42;98144.38;4379277;32;20026;-84
2022/07/05 04:39:28;;;;;;;;;;;;;;;23.31;68.80;98152.91;4379854;32;20028;-84
2022/07/05 04:41:55;;;;;;;;;;;;;;;23.30;69.53;98142.53;4381266;32;20546;-84
2022/07/05 04:44:22;;;;;;;;;;;;;;;22.97;71.00;98146.47;4380958;32;19975;-84
2022/07/05 04:46:49;;;;;;;;;;;;;;;22.51;73.24;98134.84;4381095;32;20009;-84
2022/07/05 04:49:15;;;;;;;;;;;;;;;22.60;73.66;98127.91;4381049;32;19994;-84
2022/07/05 04:51:42;;;;;;;;;;;;;;;23.02;71.82;98124.03;4380956;32;19974;-84
2022/07/05 04:54:13;;;;;;;;;;;;;;;23.23;70.07;98115.94;4381236;32;20037;-84
2022/07/05 04:59:52;;;;;;;;;;;;;;;23.51;69.21;98108.91;4381249;32;19988;-84
2022/07/05 05:02:18;;;;;;;;;;;;;;;23.71;68.38;98100.94;4380945;32;20028;-84
2022/07/05 05:11:29;;;;;;;;;;;;;;;23.64;69.70;98116.50;4380597;32;20029;-84
2022/07/05 05:13:55;;;;;;;;;;;;;;;23.79;68.91;98112.41;4380973;32;20365;-84
2022/07/05 05:19:35;;;;;;;;;;;;;;;23.69;69.57;98118.69;4380867;32;20375;-84
2022/07/05 05:22:02;;;;;;;;;;;;;;;23.25;70.75;98113.16;4380930;32;20334;-84
2022/07/05 05:24:28;;;;;;;;;;;;;;;23.52;69.83;98110.56;4380936;32;20022;-84
2022/07/05 05:26:55;;;;;;;;;;;;;;;23.94;68.92;98104.84;4380543;32;20033;-85
2022/07/05 05:29:22;;;;;;;;;;;;;;;24.70;65.09;98104.44;4381029;32;19990;-84
2022/07/05 05:31:49;;;;;;;;;;;;;;;24.33;65.07;98089.59;4380931;32;19994;-84
2022/07/05 05:34:16;;;;;;;;;;;;;;;23.81;67.08;98091.16;4380674;32;19982;-84
2022/07/05 05:40:05;;;;;;;;;;;;;;;24.46;64.97;98094.50;4380841;32;20017;-85
2022/07/05 05:42:31;;;;;;;;;;;;;;;25.11;62.70;98091.56;4380760;32;20005;-85
2022/07/05 05:51:25;;;;;;;;;;;;;;;25.37;61.54;98068.56;4380651;32;19997;-85
2022/07/05 05:53:52;;;;;;;;;;;;;;;24.86;64.00;98064.13;4380474;32;20329;-84
2022/07/05 05:59:40;;;;;;;;;;;;;;;23.54;68.49;98052.47;4380669;32;19996;-85
2022/07/05 06:02:08;;;;;;;;;;;;;;;23.94;68.23;98045.06;4380706;32;19988;-85
2022/07/05 06:11:18;;;;;;;;;;;;;;;23.92;67.61;98025.09;4380312;32;20008;-83
2022/07/05 06:13:45;;;;;;;;;;;;;;;23.31;70.68;98020.47;4380450;32;19978;-83
2022/07/05 06:19:25;;;;;;;;;;;;;;;23.43;69.37;98027.19;4380661;32;20005;-84
2022/07/05 06:21:51;;;;;;;;;;;;;;;23.41;69.57;98036.22;4380750;32;19978;-82
2022/07/05 06:31:09;;;;;;;;;;;;;;;23.31;70.86;98054.69;4381180;32;19981;-82
2022/07/05 06:33:36;;;;;;;;;;;;;;;23.57;69.69;98066.19;4380441;32;20139;-82
2022/07/05 06:39:25;;;;;;;;;;;;;;;23.04;71.81;98074.72;4383520;32;19988;-86
2022/07/05 06:41:51;;;;;;;;;;;;;;;23.38;74.80;98064.47;4381680;32;19980;-85
2022/07/05 06:44:18;;;;;;;;;;;;;;;23.47;76.00;98065.41;4382807;32;19997;-86
2022/07/05 06:47:01;;;;;;;;;;;;;;;23.12;77.72;98063.47;4382181;32;19978;-86
2022/07/05 06:49:28;;;;;;;;;;;;;;;23.62;76.60;98073.69;4382166;32;19967;-85
2022/07/05 06:51:55;;;;;;;;;;;;;;;23.42;77.33;98072.09;4386121;32;19978;-85
2022/07/05 06:54:22;;;;;;;;;;;;;;;22.65;81.81;98070.47;4385153;32;19974;-85
2022/07/05 06:57:09;;;;;;;;;;;;;;;22.53;81.32;98080.31;4386132;32;20037;-84
2022/07/05 06:59:56;;;;;;;;;;;;;;;22.39;81.74;98088.63;4386782;32;19988;-84
2022/07/05 07:02:24;;;;;;;;;;;;;;;22.63;82.22;98096.91;4384177;32;19970;-85
2022/07/05 07:11:36;;;;;;;;;;;;;;;22.46;83.67;98106.34;4382232;32;19985;-84
2022/07/05 07:14:02;;;;;;;;;;;;;;;23.08;81.79;98115.56;4380396;32;20286;-84
2022/07/05 07:19:45;;;;;;;;;;;;;;;23.28;77.09;98113.69;4381651;32;19969;-84
2022/07/05 07:22:12;;;;;;;;;;;;;;;22.43;80.32;98114.47;4380604;32;19991;-83
2022/07/05 07:31:23;;;;;;;;;;;;;;;22.85;78.46;98113.38;4382039;32;20062;-84
2022/07/05 07:33:50;;;;;;;;;;;;;;;22.50;80.74;98112.97;4382391;32;20051;-85
2022/07/05 07:39:39;;;;;;;;;;;;;;;22.98;78.70;98117.41;4383111;32;20489;-85
2022/07/05 07:42:06;;;;;;;;;;;;;;;22.52;79.80;98120.72;4383684;32;20598;-85
2022/07/05 07:50:40;;;;;;;;;;;;;;;21.75;83.85;98110.91;4385937;32;20391;-84
2022/07/05 07:53:07;;;;;;;;;;;;;;;21.92;83.20;98105.00;4384222;32;19967;-84
2022/07/05 07:58:56;;;;;;;;;;;;;;;21.21;86.12;98100.72;4384338;32;19994;-84
2022/07/05 08:01:23;;;;;;;;;;;;;;;21.44;86.54;98123.22;4384992;32;20670;-84
2022/07/05 08:03:50;;;;;;;;;;;;;;;22.16;83.32;98146.72;4384647;32;20002;-84
2022/07/05 08:09:38;;;;;;;;;;;;;;;21.42;86.55;98164.53;4382786;32;20323;-83
2022/07/05 08:12:05;;;;;;;;;;;;;;;21.94;83.98;98162.66;4381241;32;19958;-86
2022/07/05 08:22:49;;;;;;;;;;;;;;;22.26;83.63;98165.13;4385281;32;19994;-87
2022/07/05 08:31:36;;;;;;;;;;;;;;;21.54;89.88;98152.97;4383143;32;19971;-86
2022/07/05 08:34:03;;;;;;;;;;;;;;;21.59;88.99;98145.56;4381869;32;19974;-86
2022/07/05 08:39:52;;;;;;;;;;;;;;;21.61;89.88;98156.75;4384450;32;19985;-85
2022/07/05 08:42:19;;;;;;;;;;;;;;;21.20;90.69;98152.38;4382478;32;19978;-86
2022/07/05 08:50:53;;;;;;;;;;;;;;;21.37;91.72;98143.94;4382756;32;19992;-86
2022/07/05 08:53:23;;;;;;;;;;;;;;;20.99;96.60;98149.75;4369129;32;19984;-86
2022/07/05 08:59:12;;;;;;;;;;;;;;;21.43;94.84;98149.63;4381470;32;20049;-86
2022/07/05 09:01:39;;;;;;;;;;;;;;;21.71;90.38;98145.47;4382250;32;19982;-85
2022/07/05 09:04:07;;;;;;;;;;;;;;;21.97;89.78;98133.50;4382492;32;20000;-85
2022/07/05 09:09:56;;;;;;;;;;;;;;;21.03;94.03;98127.53;4383999;32;20347;-85
2022/07/05 09:15:58;;;;;;;;;;;;;;;21.59;92.35;98134.22;4381261;32;19980;-86
2022/07/05 09:18:43;;;;;;;;;;;;;;;22.10;88.91;98138.53;4381470;32;20230;-85
2022/07/05 09:21:16;;;;;;;;;;;;;;;22.11;88.72;98146.25;4380828;32;20042;-86
2022/07/05 09:23:43;;;;;;;;;;;;;;;22.00;89.08;98151.59;4381157;32;19970;-86
2022/07/05 09:29:32;;;;;;;;;;;;;;;22.11;90.81;98161.19;4381932;32;19973;-88
2022/07/05 09:32:25;;;;;;;;;;;;;;;22.64;87.19;98164.31;4381995;32;20013;-86
2022/07/05 09:34:52;;;;;;;;;;;;;;;21.51;93.16;98158.50;4380895;32;20057;-85
2022/07/05 09:37:18;;;;;;;;;;;;;;;22.35;88.55;98160.84;4381487;32;20050;-85
2022/07/05 09:39:45;;;;;;;;;;;;;;;22.32;88.96;98163.72;4381083;32;20050;-85
2022/07/05 09:42:23;;;;;;;;;;;;;;;22.50;88.83;98157.66;4381125;32;19978;-85
2022/07/05 09:44:50;;;;;;;;;;;;;;;22.72;89.36;98164.44;4381361;32;19986;-84
2022/07/05 09:47:18;;;;;;;;;;;;;;;22.26;89.87;98162.50;4381066;32;20041;-84
2022/07/05 09:49:46;;;;;;;;;;;;;;;22.17;89.61;98160.69;4380872;32;19990;-85
2022/07/05 09:52:34;;;;;;;;;;;;;;;21.64;92.66;98161.72;4381404;32;19980;-85
2022/07/05 09:55:08;;;;;;;;;;;;;;;22.04;90.95;98165.31;4380815;32;19970;-85
2022/07/05 09:57:39;;;;;;;;;;;;;;;22.17;89.29;98161.50;4380893;32;20072;-86
2022/07/05 10:00:09;;;;;;;;;;;;;;;22.28;88.85;98172.88;4380174;32;20380;-85
2022/07/05 10:02:36;;;;;;;;;;;;;;;22.23;89.93;98173.28;4380793;32;19997;-85
2022/07/05 10:05:09;;;;;;;;;;;;;;;22.13;89.82;98170.63;4381953;32;20061;-85
2022/07/05 10:07:36;;;;;;;;;;;;;;;22.26;89.02;98173.00;4383611;32;19994;-83
2022/07/05 10:10:03;;;;;;;;;;;;;;;22.57;88.06;98183.44;4386982;32;20014;-82
2022/07/05 10:12:30;;;;;;;;;;;;;;;22.73;86.21;98188.94;4386389;32;20002;-83
2022/07/05 10:14:57;;;;;;;;;;;;;;;22.46;88.74;98189.63;4372469;32;20500;-83
2022/07/05 10:17:24;;;;;;;;;;;;;;;22.42;88.93;98189.06;4373275;32;19971;-84
2022/07/05 10:19:51;;;;;;;;;;;;;;;22.13;90.28;98181.16;4386142;32;20133;-84
2022/07/05 10:22:17;;;;;;;;;;;;;;;21.59;92.04;98187.56;4374104;32;20010;-83
2022/07/05 10:24:46;;;;;;;;;;;;;;;22.51;88.84;98187.41;4381168;32;19974;-84
2022/07/05 10:27:14;;;;;;;;;;;;;;;22.70;88.26;98184.81;4387836;32;19954;-85
2022/07/05 10:29:41;;;;;;;;;;;;;;;22.40;90.60;98190.19;4388606;32;20030;-84
2022/07/05 10:32:10;;;;;;;;;;;;;;;22.57;90.30;98186.87;4373766;32;19986;-84
2022/07/05 10:34:37;;;;;;;;;;;;;;;22.80;89.36;98192.69;4385395;32;19986;-84
2022/07/05 10:37:27;;;;;;;;;;;;;;;23.01;88.84;98197.84;4386273;32;19947;-84
2022/07/05 10:39:55;;;;;;;;;;;;;;;22.26;93.21;98186.16;4388564;32;19981;-84
2022/07/05 10:42:22;;;;;;;;;;;;;;;22.13;94.75;98189.03;4385524;32;20022;-84
2022/07/05 10:44:49;;;;;;;;;;;;;;;22.55;93.16;98193.25;4373108;32;19978;-84
2022/07/05 10:47:18;;;;;;;;;;;;;;;22.49;93.66;98189.34;4386022;32;19966;-84
2022/07/05 10:49:58;;;;;;;;;;;;;;;22.65;91.49;98188.81;4383491;32;19990;-84
2022/07/05 10:52:25;;;;;;;;;;;;;;;22.20;96.12;98189.31;4385359;32;20393;-84
2022/07/05 10:55:11;;;;;;;;;;;;;;;22.43;93.64;98187.25;4384533;32;19987;-84
2022/07/05 10:57:38;;;;;;;;;;;;;;;22.57;92.66;98183.44;4385544;32;20002;-84
2022/07/05 11:00:08;;;;;;;;;;;;;;;22.39;92.64;98191.97;4388449;32;19990;-84
2022/07/05 11:02:34;;;;;;;;;;;;;;;22.14;94.94;98180.19;4391367;32;20004;-84
2022/07/05 11:05:01;;;;;;;;;;;;;;;22.60;91.71;98183.12;4389269;32;19992;-83
2022/07/05 11:07:47;;;;;;;;;;;;;;;22.79;90.71;98186.59;4389563;32;19997;-86
2022/07/05 11:10:13;;;;;;;;;;;;;;;22.88;89.59;98184.97;4384290;32;19999;-84
2022/07/05 11:12:40;;;;;;;;;;;;;;;22.90;89.94;98176.94;4388463;32;19996;-83
2022/07/05 11:15:10;;;;;;;;;;;;;;;22.84;89.44;98185.38;4383293;32;20030;-85
2022/07/05 11:17:37;;;;;;;;;;;;;;;23.29;87.56;98175.91;4382422;32;19951;-84
2022/07/05 11:20:28;;;;;;;;;;;;;;;22.65;91.20;98176.50;4370997;32;19982;-85
2022/07/05 11:23:01;;;;;;;;;;;;;;;23.14;89.63;98174.69;4384403;32;20649;-85
2022/07/05 11:25:30;;;;;;;;;;;;;;;23.04;88.91;98168.59;4384061;32;20052;-84
2022/07/05 11:28:14;;;;;;;;;;;;;;;23.30;89.26;98171.50;4371063;32;20594;-84
2022/07/05 11:30:59;;;;;;;;;;;;;;;23.09;87.72;98172.50;4372707;32;19968;-84
2022/07/05 11:33:32;;;;;;;;;;;;;;;22.95;88.59;98172.09;4382304;32;20000;-85
2022/07/05 11:35:59;;;;;;;;;;;;;;;22.94;89.58;98171.25;4381155;32;19974;-85
2022/07/05 11:38:26;;;;;;;;;;;;;;;22.81;92.59;98174.16;4380564;32;20504;-85
2022/07/05 11:41:12;;;;;;;;;;;;;;;22.79;90.78;98170.81;4380048;32;19982;-86
2022/07/05 11:43:40;;;;;;;;;;;;;;;22.87;90.67;98167.53;4380154;32;20388;-85
2022/07/05 11:46:08;;;;;;;;;;;;;;;22.69;91.52;98167.38;4365932;32;19988;-85
2022/07/05 11:48:41;;;;;;;;;;;;;;;22.72;92.49;98164.44;4379764;32;19977;-85
2022/07/05 11:51:11;;;;;;;;;;;;;;;22.38;94.73;98165.81;4366415;32;20451;-86
2022/07/05 11:53:38;;;;;;;;;;;;;;;22.46;94.44;98169.44;4380349;32;19982;-85
2022/07/05 11:56:25;;;;;;;;;;;;;;;22.33;93.92;98161.00;4368233;32;19974;-86
2022/07/05 11:58:52;;;;;;;;;;;;;;;21.66;99.11;98158.97;4379511;32;20042;-87
2022/07/05 12:01:18;;;;;;;;;;;;;;;22.12;97.02;98153.22;4379868;32;20005;-87
2022/07/05 12:03:52;;;;;;;;;;;;;;;21.75;98.43;98152.09;4379698;32;20025;-87
2022/07/05 12:06:20;;;;;;;;;;;;;;;21.90;97.88;98146.34;4365573;32;19978;-86
2022/07/05 12:08:47;;;;;;;;;;;;;;;22.43;93.81;98147.81;4379558;32;20361;-87
2022/07/05 12:14:00;;;;;;;;;;;;;;;22.32;92.43;98138.28;4379089;32;20034;-87
2022/07/05 12:16:27;;;;;;;;;;;;;;;21.79;95.85;98137.72;4379247;32;20057;-87
2022/07/05 12:18:55;;;;;;;;;;;;;;;22.40;93.69;98134.97;4379632;32;20033;-87
2022/07/05 12:21:22;;;;;;;;;;;;;;;22.30;92.79;98137.59;4378908;32;20041;-87
2022/07/05 12:23:49;;;;;;;;;;;;;;;22.13;93.19;98133.03;4379358;32;19982;-87
2022/07/05 12:26:16;;;;;;;;;;;;;;;22.34;92.25;98136.38;4378631;32;19970;-87
2022/07/05 12:28:44;;;;;;;;;;;;;;;22.35;92.06;98131.94;4379233;32;19992;-87
2022/07/05 12:31:14;;;;;;;;;;;;;;;21.90;95.30;98132.34;4379371;32;20013;-87
2022/07/05 12:33:41;;;;;;;;;;;;;;;22.49;92.21;98137.59;4379672;32;20046;-87
2022/07/05 12:36:15;;;;;;;;;;;;;;;22.61;90.87;98140.09;4379307;32;20053;-87
2022/07/05 12:38:42;;;;;;;;;;;;;;;22.53;90.76;98136.34;4379639;32;19967;-87
2022/07/05 12:41:09;;;;;;;;;;;;;;;22.32;93.46;98140.06;4379550;32;20042;-87
2022/07/05 12:43:56;;;;;;;;;;;;;;;22.64;91.17;98145.06;4379285;32;20009;-87
2022/07/05 12:46:42;;;;;;;;;;;;;;;22.77;92.52;98140.38;4379104;32;20336;-87
2022/07/05 12:49:12;;;;;;;;;;;;;;;22.80;89.88;98137.47;4379121;32;20543;-86
2022/07/05 12:51:40;;;;;;;;;;;;;;;23.20;89.68;98139.91;4379308;32;20313;-87
2022/07/05 12:59:58;;;;;;;;;;;;;;;23.84;86.71;98135.69;4382523;32;19942;-88
2022/07/05 13:02:35;;;;;;;;;;;;;;;24.30;84.35;98125.97;4383501;32;20022;-88
2022/07/05 13:05:02;;;;;;;;;;;;;;;24.25;84.72;98121.16;4385885;32;19997;-88
2022/07/05 13:07:28;;;;;;;;;;;;;;;23.87;86.40;98117.75;4370270;32;19974;-88
2022/07/05 13:10:18;;;;;;;;;;;;;;;24.23;83.64;98125.72;4382602;32;19966;-88
2022/07/05 13:12:48;;;;;;;;;;;;;;;23.43;86.08;98116.69;4383548;32;19986;-88
2022/07/05 13:15:15;;;;;;;;;;;;;;;23.74;83.77;98122.56;4383599;32;19979;-88
2022/07/05 13:17:43;;;;;;;;;;;;;;;23.97;84.62;98122.16;4383579;32;19989;-88
2022/07/05 13:20:10;;;;;;;;;;;;;;;23.92;86.52;98122.56;4383721;32;19981;-89
2022/07/05 13:22:37;;;;;;;;;;;;;;;24.27;83.21;98121.81;4383257;32;19986;-89
2022/07/05 13:25:04;;;;;;;;;;;;;;;24.47;82.68;98118.09;4382876;32;19966;-89
2022/07/05 13:27:30;;;;;;;;;;;;;;;24.22;83.95;98116.16;4382770;32;19998;-89
2022/07/05 13:29:57;;;;;;;;;;;;;;;24.26;84.22;98116.69;4381542;32;19989;-89
2022/07/05 13:32:24;;;;;;;;;;;;;;;24.68;79.99;98104.59;4381258;32;19993;-89
2022/07/05 13:34:52;;;;;;;;;;;;;;;24.74;80.99;98113.69;4381626;32;20049;-90
2022/07/05 13:37:18;;;;;;;;;;;;;;;24.31;81.76;98112.66;4381183;32;20062;-90
2022/07/05 13:39:45;;;;;;;;;;;;;;;24.07;82.52;98122.94;4381473;32;19982;-90
2022/07/05 13:42:12;;;;;;;;;;;;;;;24.00;81.80;98120.03;4367657;32;20362;-90
2022/07/05 13:44:39;;;;;;;;;;;;;;;23.99;81.66;98109.66;4380669;32;20049;-90
2022/07/05 13:47:07;;;;;;;;;;;;;;;23.94;82.52;98118.00;4381599;32;19985;-89
2022/07/05 13:49:33;;;;;;;;;;;;;;;23.66;84.89;98117.19;4383963;32;19990;-90
2022/07/05 13:52:01;;;;;;;;;;;;;;;23.20;86.75;98097.81;4383971;32;19950;-90
2022/07/05 13:54:28;;;;;;;;;;;;;;;22.93;88.82;98105.63;4383315;32;20020;-89
2022/07/05 13:56:55;;;;;;;;;;;;;;;23.10;89.54;98107.53;4383332;32;20041;-89
2022/07/05 13:59:22;;;;;;;;;;;;;;;23.51;87.10;98108.09;4382640;32;20106;-89
2022/07/05 14:01:49;;;;;;;;;;;;;;;23.16;88.98;98098.22;4383314;32;20029;-89
2022/07/05 14:04:15;;;;;;;;;;;;;;;23.47;86.41;98091.72;4382196;32;20391;-90
2022/07/05 14:06:42;;;;;;;;;;;;;;;23.36;86.74;98087.47;4380909;32;20035;-89
2022/07/05 14:09:09;;;;;;;;;;;;;;;23.50;87.93;98090.59;4381016;32;19971;-89
2022/07/05 14:11:36;;;;;;;;;;;;;;;23.36;87.71;98095.37;4379602;32;20012;-88
2022/07/05 14:14:03;;;;;;;;;;;;;;;22.86;89.40;98084.31;4381055;32;20002;-88
2022/07/05 14:16:29;;;;;;;;;;;;;;;23.46;87.48;98087.44;4381964;32;19998;-86
2022/07/05 14:18:56;;;;;;;;;;;;;;;23.28;85.43;98068.94;4380554;32;19985;-84
2022/07/05 14:21:23;;;;;;;;;;;;;;;22.99;87.86;98082.22;4380311;32;20026;-83
2022/07/05 14:24:04;;;;;;;;;;;;;;;22.86;88.15;98075.56;4380703;32;19982;-84
2022/07/05 14:26:32;;;;;;;;;;;;;;;22.69;90.71;98070.06;4367497;32;20049;-85
2022/07/05 14:29:00;;;;;;;;;;;;;;;22.80;87.52;98062.00;4380619;32;19973;-84
2022/07/05 14:31:30;;;;;;;;;;;;;;;22.67;87.43;98058.84;4380491;32;19992;-84
2022/07/05 14:33:58;;;;;;;;;;;;;;;22.36;88.84;98057.37;4380243;32;20038;-84
2022/07/05 14:36:25;;;;;;;;;;;;;;;22.22;89.20;98055.97;4382022;32;19982;-86
2022/07/05 14:38:52;;;;;;;;;;;;;;;22.45;88.73;98059.16;4383128;32;19970;-83
2022/07/05 14:41:18;;;;;;;;;;;;;;;22.16;89.47;98057.34;4380834;32;19986;-81
2022/07/05 14:43:45;;;;;;;;;;;;;;;22.17;90.58;98053.75;4382642;32;19978;-83
2022/07/05 14:46:17;;;;;;;;;;;;;;;22.31;88.46;98056.94;4380186;32;19989;-83
2022/07/05 14:48:46;;;;;;;;;;;;;;;22.22;88.99;98055.97;4367484;32;20321;-84
2022/07/05 14:51:13;;;;;;;;;;;;;;;22.08;88.81;98061.62;4380186;32;20032;-84
2022/07/05 14:53:42;;;;;;;;;;;;;;;21.50;91.70;98059.72;4380012;32;19990;-84
2022/07/05 14:56:09;;;;;;;;;;;;;;;21.75;91.50;98060.19;4379946;32;19988;-84
2022/07/05 14:58:35;;;;;;;;;;;;;;;21.76;91.10;98061.84;4380323;32;19966;-84
2022/07/05 15:01:02;;;;;;;;;;;;;;;21.60;92.11;98047.44;4379982;32;20349;-83
2022/07/05 15:03:29;;;;;;;;;;;;;;;21.74;90.77;98053.28;4380275;32;19997;-85
2022/07/05 15:05:56;;;;;;;;;;;;;;;21.74;91.31;98055.91;4380071;32;20041;-84
2022/07/05 15:08:25;;;;;;;;;;;;;;;21.66;91.49;98046.06;4379868;32;20031;-84
2022/07/05 15:10:52;;;;;;;;;;;;;;;22.13;88.46;98046.31;4380146;32;19996;-84
2022/07/05 15:13:18;;;;;;;;;;;;;;;22.09;88.39;98051.00;4380197;32;19993;-84
2022/07/05 15:15:46;;;;;;;;;;;;;;;22.36;88.23;98045.06;4379675;32;19974;-84
2022/07/05 15:18:13;;;;;;;;;;;;;;;22.72;86.16;98037.38;4380158;32;19984;-85
2022/07/05 15:20:40;;;;;;;;;;;;;;;22.75;85.82;98031.81;4379945;32;19993;-86
2022/07/05 15:23:06;;;;;;;;;;;;;;;23.01;85.74;98037.34;4379321;32;20045;-86
2022/07/05 15:25:33;;;;;;;;;;;;;;;23.09;84.22;98038.28;4379938;32;19970;-85
2022/07/05 15:28:00;;;;;;;;;;;;;;;23.43;84.00;98032.44;4380134;32;19967;-84
2022/07/05 15:30:27;;;;;;;;;;;;;;;23.61;82.12;98029.91;4379667;32;20042;-85
2022/07/05 15:32:54;;;;;;;;;;;;;;;23.42;82.34;98030.78;4380586;32;20006;-86
2022/07/05 15:35:26;;;;;;;;;;;;;;;23.23;82.16;98030.88;4380583;32;19947;-87
2022/07/05 15:37:52;;;;;;;;;;;;;;;23.27;81.87;98021.69;4380400;32;20018;-86
2022/07/05 15:40:19;;;;;;;;;;;;;;;23.17;82.76;98034.06;4381809;32;20036;-86
2022/07/05 15:42:46;;;;;;;;;;;;;;;23.09;82.20;98029.56;4379907;32;20053;-87
2022/07/05 15:45:13;;;;;;;;;;;;;;;23.29;81.76;98028.50;4366955;32;20049;-88
2022/07/05 15:47:41;;;;;;;;;;;;;;;23.11;82.58;98026.78;4380108;32;20045;-86
2022/07/05 15:50:10;;;;;;;;;;;;;;;23.16;81.89;98035.06;4379887;32;20030;-87
2022/07/05 15:52:37;;;;;;;;;;;;;;;23.42;80.96;98029.97;4379821;32;19996;-86
2022/07/05 15:55:04;;;;;;;;;;;;;;;22.70;83.32;98026.19;4379644;32;20057;-86
2022/07/05 15:57:31;;;;;;;;;;;;;;;22.52;85.04;98049.72;4379581;32;19978;-85
2022/07/05 15:59:58;;;;;;;;;;;;;;;22.81;84.29;98041.78;4380068;32;20038;-86
2022/07/05 16:02:25;;;;;;;;;;;;;;;23.28;82.16;98034.72;4379775;32;20313;-86
2022/07/05 16:04:51;;;;;;;;;;;;;;;22.87;83.20;98036.00;4379575;32;19988;-85
2022/07/05 16:07:18;;;;;;;;;;;;;;;23.53;81.91;98037.66;4379969;32;19974;-86
2022/07/05 16:09:49;;;;;;;;;;;;;;;23.20;81.00;98025.91;4379751;32;20042;-85
2022/07/05 16:12:36;;;;;;;;;;;;;;;22.90;81.45;98025.19;4379880;32;20310;-87
2022/07/05 16:15:04;;;;;;;;;;;;;;;23.21;80.67;98035.47;4380471;32;19983;-86
2022/07/05 16:17:30;;;;;;;;;;;;;;;22.93;81.16;98042.47;4379535;32;19985;-85
2022/07/05 16:19:57;;;;;;;;;;;;;;;23.25;80.06;98052.63;4378867;32;19978;-86
2022/07/05 16:22:24;;;;;;;;;;;;;;;23.23;80.00;98051.94;4379792;32;19974;-87
2022/07/05 16:24:51;;;;;;;;;;;;;;;23.30;80.69;98058.28;4381405;32;19993;-88
2022/07/05 16:27:17;;;;;;;;;;;;;;;23.47;78.56;98056.66;4380954;32;20046;-86
2022/07/05 16:29:44;;;;;;;;;;;;;;;23.33;78.77;98058.00;4382400;32;19955;-87
2022/07/05 16:32:11;;;;;;;;;;;;;;;23.41;78.68;98060.72;4380412;32;20018;-87
2022/07/05 16:34:38;;;;;;;;;;;;;;;22.84;80.74;98044.16;4380537;32;20034;-88
2022/07/05 16:37:08;;;;;;;;;;;;;;;22.89;81.66;98044.56;4382832;32;20042;-88
2022/07/05 16:39:35;;;;;;;;;;;;;;;22.47;83.13;98062.47;4383100;32;19978;-88
2022/07/05 16:42:03;;;;;;;;;;;;;;;23.32;79.81;98057.16;4369572;32;19997;-86
2022/07/05 16:44:31;;;;;;;;;;;;;;;22.70;82.63;98058.56;4381453;32;20309;-86
2022/07/05 16:46:58;;;;;;;;;;;;;;;23.33;79.60;98056.19;4383812;32;20010;-88
2022/07/05 16:49:25;;;;;;;;;;;;;;;23.44;77.61;98060.44;4382089;32;19970;-86
2022/07/05 16:51:52;;;;;;;;;;;;;;;23.02;78.82;98073.19;4385223;32;20002;-88
2022/07/05 16:54:18;;;;;;;;;;;;;;;23.31;78.72;98081.00;4382577;32;20013;-88
2022/07/05 16:56:45;;;;;;;;;;;;;;;22.95;80.65;98080.00;4383605;32;19985;-88